Time;durP1;ratioP1;P1;durP2;ratioP2;P2;SDS_P1;SDS_P2;PMS_P1;PMS_P2;Temp;Humidity;BMP_temperature;BMP_pressure;BME280_temperature;BME280_humidity;BME280_pressure;Samples;Min_cycle;Max_cycle;Signal;HPM_P1;HPM_P2
2024/04/04 00:02:25;;;;;;;2.83;1.48;;;15.20;77.70;;;;;;5036926;28;20025;-34
2024/04/04 00:05:03;;;;;;;4.70;1.58;;;15.20;77.80;;;;;;5035396;28;20041;-36
2024/04/04 00:07:29;;;;;;;2.67;1.45;;;15.20;77.80;;;;;;5038296;28;20497;-34
2024/04/04 00:09:55;;;;;;;4.38;1.48;;;15.20;77.80;;;;;;5034432;28;20037;-35
2024/04/04 00:12:21;;;;;;;2.95;1.20;;;15.10;78.40;;;;;;5072752;28;20036;-33
2024/04/04 00:14:48;;;;;;;2.85;1.50;;;15.10;77.80;;;;;;5032542;28;20029;-34
2024/04/04 00:17:13;;;;;;;3.40;1.30;;;15.10;77.80;;;;;;5030897;28;20485;-34
2024/04/04 00:19:39;;;;;;;2.70;1.30;;;15.10;78.30;;;;;;5033436;28;20026;-33
2024/04/04 00:22:05;;;;;;;1.92;1.33;;;15.10;77.90;;;;;;5031473;28;20034;-34
2024/04/04 00:24:31;;;;;;;2.60;1.40;;;15.10;77.90;;;;;;5039219;28;20088;-34
2024/04/04 00:26:57;;;;;;;4.05;1.67;;;15.10;77.90;;;;;;5010598;28;20525;-38
2024/04/04 00:29:22;;;;;;;2.85;1.45;;;15.10;77.90;;;;;;5018128;28;20080;-35
2024/04/04 00:31:48;;;;;;;3.22;1.40;;;15.00;77.90;;;;;;5038130;28;20129;-33
2024/04/04 00:34:14;;;;;;;2.65;1.35;;;15.00;77.90;;;;;;5036990;28;20033;-32
2024/04/04 00:36:40;;;;;;;2.58;1.48;;;15.00;77.90;;;;;;5037046;28;20044;-34
2024/04/04 00:39:06;;;;;;;2.80;1.40;;;15.00;78.00;;;;;;5048995;28;20029;-34
2024/04/04 00:41:32;;;;;;;2.70;1.35;;;15.00;78.00;;;;;;5058755;28;20034;-34
2024/04/04 00:43:57;;;;;;;4.28;1.50;;;14.90;78.00;;;;;;5040732;28;20037;-34
2024/04/04 00:46:24;;;;;;;1.75;1.40;;;14.90;78.00;;;;;;5021156;28;20087;-35
2024/04/04 00:48:51;;;;;;;2.47;1.27;;;14.90;78.00;;;;;;5040045;28;20115;-38
2024/04/04 00:51:17;;;;;;;2.35;1.30;;;14.90;78.00;;;;;;5067662;28;20428;-38
2024/04/04 00:53:43;;;;;;;3.97;1.50;;;14.80;77.90;;;;;;5030405;28;20482;-35
2024/04/04 00:56:09;;;;;;;2.45;1.50;;;14.80;77.90;;;;;;5051447;28;20025;-34
2024/04/04 00:58:35;;;;;;;2.75;1.55;;;14.80;77.90;;;;;;5037535;28;20022;-33
2024/04/04 01:01:02;;;;;;;3.00;1.42;;;14.80;78.00;;;;;;5064992;28;20026;-31
2024/04/04 01:03:28;;;;;;;3.05;1.30;;;14.80;78.00;;;;;;5039988;28;20642;-36
2024/04/04 01:05:53;;;;;;;2.72;1.42;;;14.70;78.00;;;;;;5029728;28;20045;-36
2024/04/04 01:08:20;;;;;;;3.10;1.48;;;14.70;78.00;;;;;;5055329;28;20021;-36
2024/04/04 01:10:46;;;;;;;3.20;1.40;;;14.70;78.00;;;;;;5032361;28;20022;-36
2024/04/04 01:13:12;;;;;;;1.75;1.30;;;14.60;77.90;;;;;;5027994;28;20498;-33
2024/04/04 01:15:38;;;;;;;2.25;1.33;;;14.60;77.90;;;;;;5036413;28;20089;-36
2024/04/04 01:18:04;;;;;;;3.13;1.40;;;14.60;77.90;;;;;;5045743;28;20049;-35
2024/04/04 01:20:30;;;;;;;2.85;1.50;;;14.60;77.90;;;;;;5040424;28;20037;-35
2024/04/04 01:22:56;;;;;;;3.72;1.50;;;14.60;77.90;;;;;;5039057;28;20013;-34
2024/04/04 01:25:21;;;;;;;2.85;1.40;;;14.60;78.00;;;;;;5064860;28;20064;-36
2024/04/04 01:27:49;;;;;;;3.55;1.48;;;14.50;77.90;;;;;;5036846;28;20121;-36
2024/04/04 01:30:16;;;;;;;2.95;1.60;;;14.50;77.90;;;;;;5032148;28;20089;-35
2024/04/04 01:32:41;;;;;;;2.38;1.33;;;14.50;78.00;;;;;;5039845;28;20036;-36
2024/04/04 01:35:07;;;;;;;3.95;1.40;;;14.50;78.00;;;;;;5038035;28;20025;-35
2024/04/04 01:37:34;;;;;;;3.17;1.40;;;14.40;77.90;;;;;;5039166;28;20033;-37
2024/04/04 01:39:59;;;;;;;2.80;1.25;;;14.40;78.00;;;;;;5037302;28;20482;-37
2024/04/04 01:42:25;;;;;;;3.25;1.20;;;14.40;78.00;;;;;;5037821;28;20059;-36
2024/04/04 01:44:51;;;;;;;2.55;1.40;;;14.40;78.00;;;;;;5070103;28;20038;-32
2024/04/04 01:47:17;;;;;;;2.50;1.30;;;14.40;78.00;;;;;;5050902;28;20032;-33
2024/04/04 01:49:42;;;;;;;2.60;1.35;;;14.40;78.00;;;;;;5036460;28;20053;-35
2024/04/04 01:52:08;;;;;;;3.85;1.30;;;14.40;78.00;;;;;;5065636;28;20045;-36
2024/04/04 01:54:34;;;;;;;1.80;1.42;;;14.40;78.00;;;;;;5048304;28;20033;-33
2024/04/04 01:56:59;;;;;;;2.97;1.30;;;14.40;78.10;;;;;;5039909;28;20026;-35
2024/04/04 01:59:25;;;;;;;3.50;1.58;;;14.40;78.10;;;;;;5036057;28;20092;-32
2024/04/04 02:01:51;;;;;;;2.25;1.30;;;14.30;78.00;;;;;;5038094;28;20293;-36
2024/04/04 02:04:17;;;;;;;2.70;1.30;;;14.30;78.10;;;;;;5033690;28;20042;-35
2024/04/04 02:06:43;;;;;;;1.80;1.20;;;14.30;78.10;;;;;;5033028;28;20021;-33
2024/04/04 02:09:09;;;;;;;2.80;1.40;;;14.30;78.10;;;;;;5037192;28;20025;-35
2024/04/04 02:11:35;;;;;;;2.53;1.27;;;14.30;78.10;;;;;;5037455;28;20025;-32
2024/04/04 02:14:01;;;;;;;2.17;1.30;;;14.30;78.20;;;;;;5028096;28;20045;-33
2024/04/04 02:16:29;;;;;;;1.83;1.35;;;14.30;78.20;;;;;;5038131;28;20091;-39
2024/04/04 02:18:55;;;;;;;3.33;1.48;;;14.30;78.20;;;;;;5034770;28;20282;-35
2024/04/04 02:21:21;;;;;;;1.67;1.30;;;14.20;78.20;;;;;;5029833;28;20051;-33
2024/04/04 02:23:47;;;;;;;1.75;1.30;;;14.30;78.20;;;;;;5037865;28;20033;-32
2024/04/04 02:26:13;;;;;;;2.95;1.50;;;14.20;78.20;;;;;;5029332;28;20032;-35
2024/04/04 02:28:39;;;;;;;2.40;1.30;;;14.30;78.30;;;;;;5038863;28;20037;-36
2024/04/04 02:31:05;;;;;;;2.88;1.40;;;14.20;78.30;;;;;;5037315;28;20109;-35
2024/04/04 02:33:31;;;;;;;2.55;1.30;;;14.20;78.30;;;;;;5037032;28;20040;-34
2024/04/04 02:35:58;;;;;;;2.40;1.20;;;14.20;78.30;;;;;;5036978;28;20746;-36
2024/04/04 02:38:25;;;;;;;2.05;1.27;;;14.20;78.90;;;;;;5050545;28;20034;-34
2024/04/04 02:40:50;;;;;;;2.00;1.30;;;14.20;78.30;;;;;;5028216;28;20034;-34
2024/04/04 02:43:17;;;;;;;3.63;1.33;;;14.20;78.30;;;;;;5036127;28;20032;-33
2024/04/04 02:45:46;;;;;;;3.03;1.30;;;14.20;78.30;;;;;;5036175;28;20042;-34
2024/04/04 02:48:12;;;;;;;3.83;1.50;;;14.20;78.30;;;;;;5052814;28;20092;-32
2024/04/04 02:50:38;;;;;;;2.35;1.40;;;14.20;78.30;;;;;;5033067;28;20032;-33
2024/04/04 02:53:04;;;;;;;3.58;1.38;;;14.20;78.30;;;;;;5032914;28;20607;-32
2024/04/04 02:55:32;;;;;;;3.78;1.48;;;14.20;78.30;;;;;;5037931;28;20044;-37
2024/04/04 02:57:58;;;;;;;2.75;1.48;;;14.20;78.30;;;;;;5033204;28;20042;-35
2024/04/04 03:00:23;;;;;;;2.15;1.30;;;14.20;78.30;;;;;;5052767;28;20048;-37
2024/04/04 03:02:49;;;;;;;3.33;1.70;;;14.20;78.30;;;;;;5014736;28;20485;-32
2024/04/04 03:05:15;;;;;;;2.53;1.38;;;14.10;78.20;;;;;;5033219;28;20057;-34
2024/04/04 03:07:42;;;;;;;2.78;1.42;;;14.10;78.20;;;;;;5037017;28;20099;-36
2024/04/04 03:10:08;;;;;;;2.90;1.40;;;14.10;78.30;;;;;;5036374;28;20567;-32
2024/04/04 03:12:33;;;;;;;3.90;1.70;;;14.10;78.30;;;;;;5036980;28;20029;-35
2024/04/04 03:14:59;;;;;;;2.17;1.30;;;14.10;78.30;;;;;;5035617;28;20071;-35
2024/04/04 03:17:27;;;;;;;2.80;1.30;;;14.10;78.20;;;;;;5036632;28;20049;-32
2024/04/04 03:19:53;;;;;;;2.38;1.45;;;14.10;78.20;;;;;;5052958;28;20014;-38
2024/04/04 03:22:18;;;;;;;1.48;1.38;;;14.10;78.30;;;;;;5035610;28;20051;-32
2024/04/04 03:24:44;;;;;;;1.98;1.40;;;14.10;78.30;;;;;;5030066;28;20033;-34
2024/04/04 03:27:10;;;;;;;2.65;1.30;;;14.10;78.20;;;;;;5049860;28;20026;-36
2024/04/04 03:29:36;;;;;;;2.03;1.20;;;14.10;78.20;;;;;;5033967;28;20057;-34
2024/04/04 03:32:03;;;;;;;3.67;1.58;;;14.10;78.20;;;;;;5037547;28;20029;-33
2024/04/04 03:34:28;;;;;;;2.30;1.67;;;14.10;78.30;;;;;;5033738;28;20036;-34
2024/04/04 03:36:54;;;;;;;3.33;1.55;;;14.10;78.30;;;;;;5034790;28;20033;-36
2024/04/04 03:39:21;;;;;;;2.25;1.33;;;14.10;78.30;;;;;;5034210;28;20036;-33
2024/04/04 03:41:46;;;;;;;2.38;1.42;;;14.10;78.40;;;;;;5037835;28;20038;-34
2024/04/04 03:44:12;;;;;;;3.25;1.30;;;14.10;78.30;;;;;;5032366;28;20049;-33
2024/04/04 03:46:38;;;;;;;2.40;1.20;;;14.10;78.40;;;;;;5060971;28;20474;-34
2024/04/04 03:49:04;;;;;;;1.73;1.20;;;14.10;78.40;;;;;;5029141;28;20022;-36
2024/04/04 03:51:30;;;;;;;1.85;1.30;;;14.10;78.40;;;;;;5037531;28;20036;-36
2024/04/04 03:53:56;;;;;;;2.60;1.50;;;14.10;78.30;;;;;;5030406;28;20055;-36
2024/04/04 03:56:21;;;;;;;2.53;1.23;;;14.10;78.40;;;;;;5039257;28;20058;-34
2024/04/04 03:58:47;;;;;;;1.80;1.30;;;14.00;78.30;;;;;;5039607;28;20410;-36
2024/04/04 04:01:13;;;;;;;2.50;1.52;;;14.10;78.40;;;;;;5040413;28;20037;-34
2024/04/04 04:03:38;;;;;;;2.65;1.38;;;14.00;78.30;;;;;;5028663;28;20032;-35
2024/04/04 04:06:04;;;;;;;2.92;1.50;;;14.10;78.40;;;;;;5037782;28;20689;-35
2024/04/04 04:08:30;;;;;;;2.40;1.40;;;14.10;78.40;;;;;;5030364;28;20057;-36
2024/04/04 04:10:56;;;;;;;2.25;1.50;;;14.00;78.30;;;;;;5041782;28;20045;-34
2024/04/04 04:13:22;;;;;;;1.45;1.20;;;14.10;78.40;;;;;;5032600;28;20079;-35
2024/04/04 04:15:57;;;;;;;2.67;1.30;;;14.10;78.40;;;;;;5040794;28;20144;-34
2024/04/04 04:18:23;;;;;;;1.48;1.30;;;14.10;78.40;;;;;;5041316;28;20033;-33
2024/04/04 04:23:33;;;;;;;3.33;1.70;;;14.10;78.40;;;;;;5038137;28;20057;-35
2024/04/04 04:25:59;;;;;;;2.00;1.23;;;14.00;78.40;;;;;;5035121;28;20045;-38
2024/04/04 04:28:25;;;;;;;1.40;1.30;;;14.00;78.40;;;;;;5041268;28;20025;-34
2024/04/04 04:30:52;;;;;;;2.10;1.45;;;14.00;78.40;;;;;;5037568;28;20052;-34
2024/04/04 04:33:18;;;;;;;2.10;1.40;;;14.00;78.40;;;;;;5036425;28;20029;-35
2024/04/04 04:35:44;;;;;;;2.42;1.42;;;14.00;78.40;;;;;;5039365;28;20036;-36
2024/04/04 04:38:09;;;;;;;1.63;1.30;;;14.00;78.40;;;;;;5066294;28;20029;-37
2024/04/04 04:40:41;;;;;;;2.08;1.42;;;14.00;78.40;;;;;;5031357;28;20140;-40
2024/04/04 04:43:08;;;;;;;2.03;1.58;;;14.00;78.40;;;;;;5059935;28;20022;-39
2024/04/04 04:45:33;;;;;;;1.95;1.60;;;14.00;78.40;;;;;;5044038;28;20030;-35
2024/04/04 04:47:59;;;;;;;2.17;1.50;;;14.00;78.40;;;;;;5038539;28;20472;-37
2024/04/04 04:50:25;;;;;;;2.13;1.40;;;14.00;78.40;;;;;;5034103;28;20041;-36
2024/04/04 04:52:51;;;;;;;1.75;1.55;;;14.00;78.40;;;;;;5037197;28;20029;-39
2024/04/04 04:55:16;;;;;;;1.42;1.30;;;14.00;78.40;;;;;;5037852;28;20034;-38
2024/04/04 04:57:43;;;;;;;1.92;1.60;;;14.00;79.00;;;;;;5038121;28;20072;-38
2024/04/04 05:00:11;;;;;;;2.17;1.42;;;14.00;78.40;;;;;;5037474;28;20017;-39
2024/04/04 05:02:38;;;;;;;2.30;1.45;;;14.00;78.40;;;;;;5038083;28;20075;-37
2024/04/04 05:05:18;;;;;;;1.75;1.52;;;14.00;78.40;;;;;;5034288;28;20064;-39
2024/04/04 05:07:44;;;;;;;2.67;1.58;;;14.10;78.50;;;;;;5022661;28;20030;-37
2024/04/04 05:10:13;;;;;;;2.85;1.65;;;14.00;78.40;;;;;;5050623;28;20040;-37
2024/04/04 05:12:38;;;;;;;1.88;1.45;;;14.00;78.40;;;;;;5038844;28;20043;-37
2024/04/04 05:15:08;;;;;;;2.42;1.50;;;14.00;78.50;;;;;;5060885;28;20056;-35
2024/04/04 05:17:34;;;;;;;1.63;1.52;;;14.00;78.50;;;;;;5027982;28;20029;-37
2024/04/04 05:20:00;;;;;;;1.60;1.50;;;14.00;78.50;;;;;;5032197;28;20515;-36
2024/04/04 05:22:27;;;;;;;2.40;1.63;;;14.00;78.50;;;;;;5033241;28;20037;-36
2024/04/04 05:24:53;;;;;;;2.25;1.50;;;14.00;78.50;;;;;;5063748;28;20053;-41
2024/04/04 05:27:19;;;;;;;1.98;1.65;;;14.00;78.50;;;;;;5038730;28;20018;-38
2024/04/04 05:29:45;;;;;;;2.85;1.70;;;14.00;78.50;;;;;;5054284;28;20037;-37
2024/04/04 05:32:10;;;;;;;2.17;1.60;;;14.00;78.50;;;;;;5037477;28;20037;-37
2024/04/04 05:34:36;;;;;;;2.47;1.55;;;14.00;78.50;;;;;;5031952;28;20036;-39
2024/04/04 05:37:02;;;;;;;2.65;1.88;;;14.00;78.50;;;;;;5044987;28;20013;-40
2024/04/04 05:39:28;;;;;;;2.15;1.73;;;14.00;78.50;;;;;;5039904;28;20030;-35
2024/04/04 05:41:54;;;;;;;2.30;1.80;;;14.00;78.50;;;;;;5039108;28;20025;-39
2024/04/04 05:44:21;;;;;;;1.98;1.55;;;14.00;78.50;;;;;;5014231;28;20041;-37
2024/04/04 05:46:47;;;;;;;1.67;1.45;;;14.00;78.50;;;;;;5052460;28;20030;-35
2024/04/04 05:49:13;;;;;;;2.85;1.88;;;14.00;78.60;;;;;;5038432;28;20394;-38
2024/04/04 05:51:38;;;;;;;1.95;1.55;;;14.00;78.50;;;;;;5038954;28;20017;-37
2024/04/04 05:54:04;;;;;;;2.03;1.70;;;14.00;78.60;;;;;;5032693;28;20023;-35
2024/04/04 05:56:30;;;;;;;2.30;1.70;;;14.00;78.60;;;;;;5032789;28;20081;-40
2024/04/04 05:58:56;;;;;;;2.38;1.63;;;14.00;78.60;;;;;;5037564;28;20065;-33
2024/04/04 06:01:23;;;;;;;1.98;1.70;;;14.00;78.60;;;;;;5037414;28;20077;-38
2024/04/04 06:03:48;;;;;;;4.20;1.97;;;14.00;78.60;;;;;;5038534;28;20045;-38
2024/04/04 06:06:14;;;;;;;3.00;1.63;;;14.00;78.60;;;;;;5034398;28;20048;-38
2024/04/04 06:08:40;;;;;;;2.33;1.90;;;14.10;78.60;;;;;;5031121;28;20028;-38
2024/04/04 06:11:05;;;;;;;2.53;1.60;;;14.10;78.60;;;;;;5053967;28;20021;-38
2024/04/04 06:13:31;;;;;;;1.92;1.67;;;14.00;78.50;;;;;;5033562;28;20022;-37
2024/04/04 06:16:01;;;;;;;2.05;1.60;;;14.00;78.50;;;;;;5036021;28;20030;-34
2024/04/04 06:18:28;;;;;;;3.47;1.80;;;14.00;78.50;;;;;;5043123;28;20030;-34
2024/04/04 06:20:54;;;;;;;1.98;1.60;;;14.00;78.60;;;;;;5026394;28;20021;-37
2024/04/04 06:23:19;;;;;;;2.47;1.70;;;14.00;78.50;;;;;;5039300;28;20044;-37
2024/04/04 06:25:45;;;;;;;3.33;1.67;;;14.10;78.60;;;;;;5037116;28;20036;-39
2024/04/04 06:28:53;;;;;;;2.35;1.58;;;14.10;78.60;;;;;;5032071;28;20042;-31
2024/04/04 06:31:19;;;;;;;3.08;1.80;;;14.10;78.70;;;;;;5029446;28;20080;-31
2024/04/04 06:33:44;;;;;;;2.40;1.90;;;14.10;78.60;;;;;;5035082;28;20484;-32
2024/04/04 06:36:10;;;;;;;3.50;1.70;;;14.10;78.60;;;;;;5031700;28;20041;-31
2024/04/04 06:38:36;;;;;;;3.88;1.50;;;14.10;78.70;;;;;;5031717;28;20049;-31
2024/04/04 06:41:02;;;;;;;3.08;1.70;;;14.10;78.70;;;;;;5019845;28;20699;-30
2024/04/04 06:43:28;;;;;;;3.00;1.80;;;14.10;78.70;;;;;;5023893;28;20042;-31
2024/04/04 06:45:54;;;;;;;2.15;1.50;;;14.10;78.70;;;;;;5034761;28;20060;-31
2024/04/04 06:48:20;;;;;;;3.72;1.70;;;14.10;78.70;;;;;;5031722;28;20449;-31
2024/04/04 06:50:46;;;;;;;2.25;1.70;;;14.10;78.70;;;;;;5033533;28;20046;-31
2024/04/04 06:53:11;;;;;;;2.65;1.60;;;14.10;79.30;;;;;;5024607;28;20484;-31
2024/04/04 06:55:37;;;;;;;2.38;1.50;;;14.20;78.70;;;;;;5028087;28;20103;-31
2024/04/04 06:58:03;;;;;;;2.13;1.60;;;14.10;78.60;;;;;;5032838;28;20038;-31
2024/04/04 07:00:29;;;;;;;2.88;1.75;;;14.20;78.70;;;;;;5024742;28;20044;-34
2024/04/04 07:02:55;;;;;;;2.25;1.60;;;14.20;78.70;;;;;;5033581;28;20514;-31
2024/04/04 07:05:21;;;;;;;2.40;1.77;;;14.20;78.70;;;;;;5029386;28;20504;-31
2024/04/04 07:07:46;;;;;;;3.00;1.70;;;14.20;78.60;;;;;;5029379;28;20385;-31
2024/04/04 07:10:13;;;;;;;2.92;1.85;;;14.20;78.60;;;;;;5047036;28;20033;-31
2024/04/04 07:12:39;;;;;;;3.17;1.52;;;14.20;78.60;;;;;;5031711;28;20040;-31
2024/04/04 07:15:05;;;;;;;4.22;1.83;;;14.20;78.60;;;;;;5051293;28;20041;-31
2024/04/04 07:17:31;;;;;;;2.22;1.60;;;14.30;78.60;;;;;;5029429;28;20035;-31
2024/04/04 07:19:57;;;;;;;2.72;1.73;;;14.30;78.70;;;;;;5038291;28;20055;-32
2024/04/04 07:22:24;;;;;;;2.55;1.63;;;14.30;78.60;;;;;;5037350;28;20045;-31
2024/04/04 07:24:49;;;;;;;2.67;1.80;;;14.30;78.70;;;;;;5035765;28;20045;-32
2024/04/04 07:27:15;;;;;;;2.58;1.67;;;14.30;78.70;;;;;;5036422;28;20350;-31
2024/04/04 07:29:45;;;;;;;4.72;1.70;;;14.30;78.70;;;;;;5029687;28;20029;-31
2024/04/04 07:32:11;;;;;;;2.42;1.58;;;14.30;78.70;;;;;;5031189;28;20033;-31
2024/04/04 07:34:37;;;;;;;2.22;1.70;;;14.30;78.70;;;;;;5042072;28;20051;-31
2024/04/04 07:37:03;;;;;;;1.98;1.40;;;14.30;78.60;;;;;;5038807;28;20048;-32
2024/04/04 07:39:33;;;;;;;3.10;1.63;;;14.30;78.70;;;;;;5040957;28;20045;-32
2024/04/04 07:42:03;;;;;;;1.52;1.35;;;14.40;78.70;;;;;;5033188;28;20033;-32
2024/04/04 07:44:29;;;;;;;2.65;1.67;;;14.40;78.70;;;;;;5038981;28;20544;-31
2024/04/04 07:46:55;;;;;;;2.03;1.60;;;14.40;78.70;;;;;;5032047;28;20061;-31
2024/04/04 07:49:21;;;;;;;3.15;1.50;;;14.40;78.70;;;;;;5037465;28;20030;-31
2024/04/04 07:51:49;;;;;;;2.47;1.55;;;14.40;78.70;;;;;;5041101;28;20033;-31
2024/04/04 07:54:15;;;;;;;2.85;1.50;;;14.40;78.70;;;;;;5040786;28;20033;-32
2024/04/04 07:56:41;;;;;;;2.30;1.50;;;14.40;78.60;;;;;;5029325;28;20037;-31
2024/04/04 07:59:07;;;;;;;3.03;1.75;;;14.40;78.70;;;;;;5039308;28;20452;-31
2024/04/04 08:01:34;;;;;;;2.38;1.63;;;14.40;78.70;;;;;;5036181;28;20053;-31
2024/04/04 08:03:59;;;;;;;1.90;1.50;;;14.50;78.70;;;;;;5019841;28;20018;-31
2024/04/04 08:06:25;;;;;;;2.25;1.48;;;14.50;78.70;;;;;;5034518;28;20079;-31
2024/04/04 08:08:51;;;;;;;1.88;1.42;;;14.50;78.70;;;;;;5040433;28;20461;-31
2024/04/04 08:11:17;;;;;;;4.82;1.73;;;14.50;78.70;;;;;;5037497;28;20033;-31
2024/04/04 08:13:45;;;;;;;2.70;1.58;;;14.50;78.70;;;;;;5040895;28;20021;-31
2024/04/04 08:16:11;;;;;;;1.70;1.60;;;14.50;78.70;;;;;;5055284;28;20022;-31
2024/04/04 08:18:37;;;;;;;3.92;1.50;;;14.50;78.70;;;;;;5041307;28;20026;-31
2024/04/04 08:21:03;;;;;;;1.83;1.40;;;14.60;78.70;;;;;;5040757;28;20040;-31
2024/04/04 08:23:30;;;;;;;1.75;1.50;;;14.60;78.70;;;;;;5035954;28;20504;-31
2024/04/04 08:25:57;;;;;;;2.25;1.50;;;14.60;78.70;;;;;;5040482;28;20045;-32
2024/04/04 08:28:23;;;;;;;2.63;1.50;;;14.60;78.70;;;;;;5038647;28;20033;-32
2024/04/04 08:31:03;;;;;;;1.80;1.60;;;14.60;78.70;;;;;;5040953;28;20056;-31
2024/04/04 08:33:30;;;;;;;2.92;1.48;;;14.60;78.70;;;;;;5037536;28;20532;-31
2024/04/04 08:35:55;;;;;;;2.28;1.52;;;14.60;78.70;;;;;;5035165;28;20033;-34
2024/04/04 08:38:21;;;;;;;1.70;1.40;;;14.70;78.70;;;;;;5034144;28;20028;-31
2024/04/04 08:40:51;;;;;;;1.90;1.42;;;14.70;78.80;;;;;;5042034;28;20028;-31
2024/04/04 08:43:17;;;;;;;1.80;1.23;;;14.70;78.80;;;;;;5038310;28;20439;-34
2024/04/04 08:45:47;;;;;;;1.77;1.40;;;14.70;78.80;;;;;;5040919;28;20044;-32
2024/04/04 08:48:22;;;;;;;3.85;1.60;;;14.70;78.70;;;;;;5034810;28;20049;-31
2024/04/04 08:50:48;;;;;;;;;;;14.70;78.70;;;;;;5035613;28;20056;-31
2024/04/04 08:53:22;;;;;;;1.92;1.30;;;14.60;78.60;;;;;;5032540;28;19909;-31
2024/04/04 08:55:51;;;;;;;3.20;1.40;;;14.70;78.70;;;;;;5040636;28;20021;-33
2024/04/04 08:58:18;;;;;;;3.10;1.30;;;14.70;78.70;;;;;;5039834;28;20029;-32
2024/04/04 09:00:46;;;;;;;2.70;1.48;;;14.80;78.80;;;;;;5040778;28;20056;-32
2024/04/04 09:03:12;;;;;;;2.47;1.45;;;14.80;78.70;;;;;;5037722;28;20022;-32
2024/04/04 09:05:50;;;;;;;2.53;1.40;;;14.80;78.70;;;;;;5032445;28;20079;-32
2024/04/04 09:08:16;;;;;;;2.40;1.40;;;14.90;78.80;;;;;;5054653;28;20076;-32
2024/04/04 09:10:45;;;;;;;2.55;1.63;;;14.80;78.70;;;;;;5040931;28;20018;-32
2024/04/04 09:13:11;;;;;;;4.50;1.90;;;14.80;78.70;;;;;;5036257;28;20101;-32
2024/04/04 09:15:39;;;;;;;3.83;1.98;;;14.90;78.80;;;;;;5030686;28;20049;-32
2024/04/04 09:18:10;;;;;;;3.15;1.80;;;14.90;78.80;;;;;;5041265;28;20022;-36
2024/04/04 09:20:37;;;;;;;3.88;2.05;;;14.90;78.80;;;;;;5038998;28;20085;-33
2024/04/04 09:23:04;;;;;;;3.47;2.13;;;14.90;78.80;;;;;;5032966;28;20101;-32
2024/04/04 09:25:31;;;;;;;3.67;2.20;;;14.90;78.80;;;;;;5032861;28;20037;-33
2024/04/04 09:28:03;;;;;;;3.45;2.10;;;14.90;78.80;;;;;;5040680;28;20033;-36
2024/04/04 09:30:32;;;;;;;3.60;2.17;;;15.00;78.80;;;;;;5040856;28;20025;-32
2024/04/04 09:32:58;;;;;;;2.67;2.20;;;15.00;78.80;;;;;;5030900;28;20048;-32
2024/04/04 09:35:24;;;;;;;3.78;2.50;;;15.00;78.80;;;;;;5038986;28;20030;-33
2024/04/04 09:37:51;;;;;;;3.22;1.90;;;15.00;78.80;;;;;;5038443;28;20084;-32
2024/04/04 09:40:17;;;;;;;3.38;2.10;;;15.00;79.50;;;;;;5036338;28;20097;-34
2024/04/04 09:42:45;;;;;;;3.50;1.98;;;15.00;78.80;;;;;;5037234;28;20017;-32
2024/04/04 09:45:13;;;;;;;3.00;2.05;;;15.10;78.90;;;;;;5038546;28;20042;-32
2024/04/04 09:47:42;;;;;;;2.58;1.83;;;15.10;78.80;;;;;;5032349;28;20028;-33
2024/04/04 09:50:11;;;;;;;3.28;1.90;;;15.10;78.80;;;;;;5038142;28;20029;-37
2024/04/04 09:52:40;;;;;;;2.90;2.03;;;15.10;78.80;;;;;;5039012;28;20125;-32
2024/04/04 09:55:08;;;;;;;3.40;1.98;;;15.10;78.80;;;;;;5027941;28;20053;-32
2024/04/04 09:57:37;;;;;;;2.53;1.80;;;15.20;78.80;;;;;;5033198;28;20025;-32
2024/04/04 10:00:14;;;;;;;2.67;1.75;;;15.20;78.80;;;;;;5037301;28;20895;-32
2024/04/04 10:02:54;;;;;;;4.30;1.70;;;15.20;78.80;;;;;;5032009;28;20028;-32
2024/04/04 10:05:35;;;;;;;2.55;1.80;;;15.20;78.80;;;;;;5032433;28;20052;-32
2024/04/04 10:08:12;;;;;;;2.42;1.52;;;15.20;78.90;;;;;;5027576;28;20042;-32
2024/04/04 10:10:42;;;;;;;4.00;1.67;;;15.30;78.90;;;;;;5038904;28;20049;-33
2024/04/04 10:13:11;;;;;;;2.20;1.70;;;15.30;78.80;;;;;;5036531;28;20033;-33
2024/04/04 10:15:43;;;;;;;1.60;1.50;;;15.30;78.90;;;;;;5037882;28;20369;-34
2024/04/04 10:18:10;;;;;;;2.63;1.70;;;15.30;78.90;;;;;;5034073;28;20088;-33
2024/04/04 10:20:42;;;;;;;2.40;1.65;;;15.30;78.90;;;;;;5011017;28;20055;-32
2024/04/04 10:23:13;;;;;;;1.75;1.48;;;15.30;78.80;;;;;;5036196;28;20064;-34
2024/04/04 10:25:43;;;;;;;2.15;1.80;;;15.40;78.80;;;;;;5037967;28;20037;-32
2024/04/04 10:28:09;;;;;;;2.25;1.80;;;15.40;78.80;;;;;;5036999;28;20029;-32
2024/04/04 10:30:36;;;;;;;2.17;1.52;;;15.40;78.80;;;;;;5037217;28;20033;-33
2024/04/04 10:33:09;;;;;;;2.83;1.70;;;15.40;78.80;;;;;;5037957;28;20045;-33
2024/04/04 10:35:35;;;;;;;2.53;1.60;;;15.50;78.90;;;;;;5039175;28;20030;-31
2024/04/04 10:38:08;;;;;;;1.70;1.60;;;15.50;78.90;;;;;;5035463;28;20057;-32
2024/04/04 10:40:34;;;;;;;2.03;1.60;;;15.50;78.80;;;;;;5036957;28;20025;-31
2024/04/04 10:42:59;;;;;;;1.95;1.60;;;15.50;78.80;;;;;;5037053;28;20029;-31
2024/04/04 10:45:28;;;;;;;2.65;1.70;;;15.50;79.40;;;;;;5040012;28;20048;-33
2024/04/04 10:48:00;;;;;;;2.35;1.60;;;15.60;78.80;;;;;;5035836;28;20025;-32
2024/04/04 10:50:27;;;;;;;1.92;1.40;;;15.60;78.80;;;;;;5039706;28;20048;-31
2024/04/04 10:52:57;;;;;;;1.63;1.50;;;15.60;78.80;;;;;;5029954;28;20026;-31
2024/04/04 10:55:25;;;;;;;2.15;1.50;;;15.70;78.80;;;;;;5033957;28;20030;-31
2024/04/04 10:57:52;;;;;;;1.83;1.50;;;15.70;78.70;;;;;;5032992;28;20033;-31
2024/04/04 11:00:20;;;;;;;1.55;1.40;;;15.80;78.70;;;;;;5037791;28;20026;-31
2024/04/04 11:02:50;;;;;;;2.45;1.67;;;15.80;78.70;;;;;;5033049;28;20037;-31
2024/04/04 11:05:17;;;;;;;1.60;1.50;;;15.80;78.70;;;;;;5030264;28;20049;-31
2024/04/04 11:07:45;;;;;;;2.13;1.60;;;15.90;78.70;;;;;;5028302;28;20037;-31
2024/04/04 11:10:15;;;;;;;2.53;1.70;;;15.90;79.40;;;;;;5033314;28;20319;-32
2024/04/04 11:12:43;;;;;;;2.60;1.70;;;15.90;78.70;;;;;;5037453;28;20018;-31
2024/04/04 11:15:10;;;;;;;2.22;1.60;;;15.90;78.70;;;;;;5038874;28;20031;-31
2024/04/04 11:17:37;;;;;;;2.15;1.50;;;16.00;78.70;;;;;;5024636;28;20057;-31
2024/04/04 11:20:16;;;;;;;3.22;1.70;;;16.00;78.70;;;;;;5022005;28;20030;-32
2024/04/04 11:22:43;;;;;;;2.05;1.55;;;16.10;78.80;;;;;;5035177;28;20045;-31
2024/04/04 11:25:09;;;;;;;2.92;1.67;;;16.10;78.80;;;;;;5018980;28;20042;-31
2024/04/04 11:27:36;;;;;;;2.70;1.58;;;16.10;78.80;;;;;;5038275;28;20032;-32
2024/04/04 11:30:03;;;;;;;1.40;1.30;;;16.10;78.80;;;;;;5030095;28;20040;-32
2024/04/04 11:32:29;;;;;;;2.38;1.50;;;16.20;78.90;;;;;;5028285;28;20022;-31
2024/04/04 11:34:54;;;;;;;2.20;1.33;;;16.20;78.90;;;;;;5038641;28;20522;-31
2024/04/04 11:37:23;;;;;;;2.38;1.30;;;16.20;78.80;;;;;;5031729;28;20113;-31
2024/04/04 11:39:50;;;;;;;1.35;1.25;;;16.30;78.80;;;;;;5051879;28;20033;-31
2024/04/04 11:42:16;;;;;;;2.38;1.40;;;16.30;78.70;;;;;;5031651;28;20043;-32
2024/04/04 11:44:41;;;;;;;3.75;1.42;;;16.30;78.80;;;;;;5037081;28;20060;-33
2024/04/04 11:47:07;;;;;;;2.33;1.27;;;16.40;78.80;;;;;;5035237;28;20049;-32
2024/04/04 11:49:33;;;;;;;2.97;1.38;;;16.40;78.80;;;;;;5030661;28;20120;-31
2024/04/04 11:51:58;;;;;;;1.50;1.20;;;16.50;78.80;;;;;;5067306;28;21560;-33
2024/04/04 11:54:24;;;;;;;1.55;1.00;;;16.50;78.70;;;;;;5039128;28;20049;-31
2024/04/04 11:56:50;;;;;;;1.50;1.20;;;16.50;78.60;;;;;;5038335;28;20136;-31
2024/04/04 11:59:15;;;;;;;3.85;1.30;;;16.60;78.70;;;;;;5034730;28;20044;-32
2024/04/04 12:01:41;;;;;;;2.95;1.20;;;16.60;78.50;;;;;;5031230;28;20065;-34
2024/04/04 12:04:11;;;;;;;5.40;1.85;;;16.70;78.60;;;;;;5052629;28;20048;-32
2024/04/04 12:06:36;;;;;;;2.97;1.25;;;16.70;78.50;;;;;;5039285;28;20025;-33
2024/04/04 12:09:06;;;;;;;2.13;1.30;;;16.80;78.40;;;;;;5035417;28;20028;-33
2024/04/04 12:11:34;;;;;;;3.13;1.33;;;16.80;78.30;;;;;;5033653;28;20037;-32
2024/04/04 12:14:00;;;;;;;2.47;1.10;;;16.90;78.40;;;;;;5029596;28;20018;-32
2024/04/04 12:16:27;;;;;;;3.58;1.50;;;16.90;78.30;;;;;;5036620;28;20524;-32
2024/04/04 12:21:37;;;;;;;2.88;1.40;;;17.00;78.20;;;;;;5041916;28;20504;-33
2024/04/04 12:24:03;;;;;;;2.53;1.23;;;17.00;78.10;;;;;;5034717;28;20018;-32
2024/04/04 12:26:29;;;;;;;1.75;1.30;;;17.00;78.10;;;;;;5041757;28;20061;-32
2024/04/04 12:28:55;;;;;;;2.42;1.30;;;17.10;78.10;;;;;;5040355;28;20029;-32
2024/04/04 12:31:20;;;;;;;2.78;1.20;;;17.10;78.00;;;;;;5037503;28;20109;-33
2024/04/04 12:33:46;;;;;;;2.05;1.20;;;17.10;78.00;;;;;;5037371;28;20056;-32
2024/04/04 12:36:12;;;;;;;3.42;1.20;;;17.20;78.00;;;;;;5031623;28;20041;-33
2024/04/04 12:38:38;;;;;;;2.85;1.38;;;17.20;77.90;;;;;;5039129;28;20041;-32
2024/04/04 12:41:04;;;;;;;5.35;1.33;;;17.20;77.90;;;;;;5036277;28;20061;-32
2024/04/04 12:43:30;;;;;;;3.92;1.27;;;17.30;77.90;;;;;;5035427;28;20037;-34
2024/04/04 12:46:04;;;;;;;3.97;1.30;;;17.30;77.80;;;;;;5068747;28;20041;-32
2024/04/04 12:48:31;;;;;;;3.63;1.30;;;17.30;77.80;;;;;;5043136;28;20485;-33
2024/04/04 12:50:58;;;;;;;3.13;1.42;;;17.40;77.80;;;;;;5035850;28;20307;-33
2024/04/04 12:53:27;;;;;;;4.43;1.60;;;17.40;77.70;;;;;;5034086;28;20359;-33